sensor_id;sensor_type;location;lat;lon;timestamp;pressure;altitude;pressure_sealevel;temperature;humidity
49461;BME280;35355;49.198;-0.368;2023-01-27T00:00:02;102207.94;;;5.63;90.23
49461;BME280;35355;49.198;-0.368;2023-01-27T00:02:27;102200.84;;;5.62;89.90
49461;BME280;35355;49.198;-0.368;2023-01-27T00:04:53;102207.75;;;5.65;90.10
49461;BME280;35355;49.198;-0.368;2023-01-27T00:07:18;102209.22;;;5.68;90.73
49461;BME280;35355;49.198;-0.368;2023-01-27T00:09:43;102200.28;;;5.67;89.76
49461;BME280;35355;49.198;-0.368;2023-01-27T00:12:20;102198.41;;;5.68;89.71
49461;BME280;35355;49.198;-0.368;2023-01-27T00:15:05;102197.09;;;5.63;89.73
49461;BME280;35355;49.198;-0.368;2023-01-27T00:17:32;102201.69;;;5.63;90.30
49461;BME280;35355;49.198;-0.368;2023-01-27T00:19:57;102197.94;;;5.64;89.87
49461;BME280;35355;49.198;-0.368;2023-01-27T00:22:23;102205.22;;;5.63;90.11
49461;BME280;35355;49.198;-0.368;2023-01-27T00:25:07;102192.53;;;5.64;90.12
49461;BME280;35355;49.198;-0.368;2023-01-27T00:27:32;102199.63;;;5.65;90.39
49461;BME280;35355;49.198;-0.368;2023-01-27T00:29:59;102191.03;;;5.61;90.24
49461;BME280;35355;49.198;-0.368;2023-01-27T00:32:24;102187.75;;;5.66;90.34
49461;BME280;35355;49.198;-0.368;2023-01-27T00:35:08;102191.28;;;5.67;90.02
49461;BME280;35355;49.198;-0.368;2023-01-27T00:37:35;102187.38;;;5.69;89.87
49461;BME280;35355;49.198;-0.368;2023-01-27T00:40:00;102177.16;;;5.71;90.11
49461;BME280;35355;49.198;-0.368;2023-01-27T00:42:25;102180.91;;;5.70;90.14
49461;BME280;35355;49.198;-0.368;2023-01-27T00:44:51;102180.53;;;5.73;90.02
49461;BME280;35355;49.198;-0.368;2023-01-27T00:47:35;102177.16;;;5.71;89.52
49461;BME280;35355;49.198;-0.368;2023-01-27T00:50:00;102175.50;;;5.70;89.73
49461;BME280;35355;49.198;-0.368;2023-01-27T00:52:26;102176.13;;;5.72;89.60
49461;BME280;35355;49.198;-0.368;2023-01-27T00:54:51;102176.34;;;5.71;89.85
49461;BME280;35355;49.198;-0.368;2023-01-27T00:57:16;102171.94;;;5.70;89.72
49461;BME280;35355;49.198;-0.368;2023-01-27T00:59:42;102169.44;;;5.68;89.33
49461;BME280;35355;49.198;-0.368;2023-01-27T01:02:07;102176.53;;;5.69;88.95
49461;BME280;35355;49.198;-0.368;2023-01-27T01:04:32;102174.84;;;5.68;89.63
49461;BME280;35355;49.198;-0.368;2023-01-27T01:06:58;102165.88;;;5.68;89.26
49461;BME280;35355;49.198;-0.368;2023-01-27T01:09:23;102182.13;;;5.68;89.07
49461;BME280;35355;49.198;-0.368;2023-01-27T01:11:49;102176.91;;;5.66;89.14
49461;BME280;35355;49.198;-0.368;2023-01-27T01:14:14;102175.22;;;5.65;88.99
49461;BME280;35355;49.198;-0.368;2023-01-27T01:16:39;102177.13;;;5.65;89.15
49461;BME280;35355;49.198;-0.368;2023-01-27T01:19:05;102176.91;;;5.66;88.99
49461;BME280;35355;49.198;-0.368;2023-01-27T01:21:30;102191.47;;;5.65;89.05
49461;BME280;35355;49.198;-0.368;2023-01-27T01:23:56;102167.31;;;5.63;89.07
49461;BME280;35355;49.198;-0.368;2023-01-27T01:26:21;102178.78;;;5.66;88.73
49461;BME280;35355;49.198;-0.368;2023-01-27T01:28:46;102176.91;;;5.66;88.96
49461;BME280;35355;49.198;-0.368;2023-01-27T01:31:14;102177.56;;;5.68;89.15
49461;BME280;35355;49.198;-0.368;2023-01-27T01:33:40;102180.66;;;5.65;88.22
49461;BME280;35355;49.198;-0.368;2023-01-27T01:36:08;102168.34;;;5.62;88.60
49461;BME280;35355;49.198;-0.368;2023-01-27T01:38:34;102170.88;;;5.64;87.91
49461;BME280;35355;49.198;-0.368;2023-01-27T01:40:59;102171.06;;;5.62;88.39
49461;BME280;35355;49.198;-0.368;2023-01-27T01:43:25;102165.66;;;5.62;88.07
49461;BME280;35355;49.198;-0.368;2023-01-27T01:45:59;102170.19;;;5.62;88.38
49461;BME280;35355;49.198;-0.368;2023-01-27T01:48:34;102176.66;;;5.61;88.25
49461;BME280;35355;49.198;-0.368;2023-01-27T01:53:55;102173.31;;;5.59;87.74
49461;BME280;35355;49.198;-0.368;2023-01-27T01:56:31;102175.19;;;5.58;88.21
49461;BME280;35355;49.198;-0.368;2023-01-27T01:59:02;102172.47;;;5.58;87.92
49461;BME280;35355;49.198;-0.368;2023-01-27T02:01:29;102173.69;;;5.56;87.50
49461;BME280;35355;49.198;-0.368;2023-01-27T02:03:57;102182.44;;;5.58;88.07
49461;BME280;35355;49.198;-0.368;2023-01-27T02:06:24;102169.97;;;5.57;87.58
49461;BME280;35355;49.198;-0.368;2023-01-27T02:08:50;102168.91;;;5.58;87.37
49461;BME280;35355;49.198;-0.368;2023-01-27T02:11:16;102173.31;;;5.59;87.80
49461;BME280;35355;49.198;-0.368;2023-01-27T02:13:42;102176.84;;;5.59;86.90
49461;BME280;35355;49.198;-0.368;2023-01-27T02:16:09;102168.91;;;5.58;87.29
49461;BME280;35355;49.198;-0.368;2023-01-27T02:18:36;102168.06;;;5.57;86.76
49461;BME280;35355;49.198;-0.368;2023-01-27T02:21:03;102157.03;;;5.59;87.15
49461;BME280;35355;49.198;-0.368;2023-01-27T02:26:32;102147.25;;;5.58;87.09
49461;BME280;35355;49.198;-0.368;2023-01-27T02:29:03;102146.59;;;5.56;86.76
49461;BME280;35355;49.198;-0.368;2023-01-27T02:31:29;102145.59;;;5.57;86.82
49461;BME280;35355;49.198;-0.368;2023-01-27T02:34:00;102151.00;;;5.57;86.27
49461;BME280;35355;49.198;-0.368;2023-01-27T02:36:29;102131.38;;;5.55;86.02
49461;BME280;35355;49.198;-0.368;2023-01-27T02:38:56;102135.97;;;5.54;85.92
49461;BME280;35355;49.198;-0.368;2023-01-27T02:41:33;102130.94;;;5.51;86.30
49461;BME280;35355;49.198;-0.368;2023-01-27T02:43:59;102132.03;;;5.57;86.15
49461;BME280;35355;49.198;-0.368;2023-01-27T02:46:25;102139.09;;;5.58;86.66
49461;BME280;35355;49.198;-0.368;2023-01-27T02:48:51;102139.97;;;5.58;86.44
49461;BME280;35355;49.198;-0.368;2023-01-27T02:51:16;102136.41;;;5.58;86.07
49461;BME280;35355;49.198;-0.368;2023-01-27T02:53:41;102133.69;;;5.58;86.49
49461;BME280;35355;49.198;-0.368;2023-01-27T02:56:07;102146.59;;;5.56;86.43
49461;BME280;35355;49.198;-0.368;2023-01-27T02:58:32;102141.81;;;5.58;86.00
49461;BME280;35355;49.198;-0.368;2023-01-27T03:00:58;102129.53;;;5.55;86.23
49461;BME280;35355;49.198;-0.368;2023-01-27T03:03:23;102141.19;;;5.56;85.90
49461;BME280;35355;49.198;-0.368;2023-01-27T03:05:49;102127.66;;;5.56;86.17
49461;BME280;35355;49.198;-0.368;2023-01-27T03:08:16;102142.88;;;5.57;86.01
49461;BME280;35355;49.198;-0.368;2023-01-27T03:10:43;102136.59;;;5.56;85.96
49461;BME280;35355;49.198;-0.368;2023-01-27T03:13:08;102130.34;;;5.56;86.43
49461;BME280;35355;49.198;-0.368;2023-01-27T03:15:34;102133.88;;;5.56;86.19
49461;BME280;35355;49.198;-0.368;2023-01-27T03:18:18;102132.44;;;5.54;85.99
49461;BME280;35355;49.198;-0.368;2023-01-27T03:20:47;102138.88;;;5.53;86.10
49461;BME280;35355;49.198;-0.368;2023-01-27T03:23:18;102135.53;;;5.51;85.79
49461;BME280;35355;49.198;-0.368;2023-01-27T03:25:46;102139.88;;;5.52;86.22
49461;BME280;35355;49.198;-0.368;2023-01-27T03:28:12;102144.47;;;5.51;85.88
49461;BME280;35355;49.198;-0.368;2023-01-27T03:30:38;102144.47;;;5.51;85.79
49461;BME280;35355;49.198;-0.368;2023-01-27T03:33:03;102139.44;;;5.48;85.56
49461;BME280;35355;49.198;-0.368;2023-01-27T03:35:31;102144.69;;;5.50;84.92
49461;BME280;35355;49.198;-0.368;2023-01-27T03:38:03;102137.56;;;5.49;85.19
49461;BME280;35355;49.198;-0.368;2023-01-27T03:40:47;102140.88;;;5.44;85.57
49461;BME280;35355;49.198;-0.368;2023-01-27T03:43:31;102144.41;;;5.44;85.62
49461;BME280;35355;49.198;-0.368;2023-01-27T03:46:15;102133.97;;;5.41;85.98
49461;BME280;35355;49.198;-0.368;2023-01-27T03:48:47;102130.41;;;5.41;85.45
49461;BME280;35355;49.198;-0.368;2023-01-27T03:51:14;102131.25;;;5.41;85.16
49461;BME280;35355;49.198;-0.368;2023-01-27T03:53:40;102123.97;;;5.42;84.75
49461;BME280;35355;49.198;-0.368;2023-01-27T03:56:05;102124.81;;;5.42;84.86
49461;BME280;35355;49.198;-0.368;2023-01-27T03:58:35;102129.84;;;5.45;85.06
49461;BME280;35355;49.198;-0.368;2023-01-27T04:01:06;102120.88;;;5.45;84.73
49461;BME280;35355;49.198;-0.368;2023-01-27T04:03:34;102118.19;;;5.45;84.93
49461;BME280;35355;49.198;-0.368;2023-01-27T04:06:25;102123.59;;;5.45;84.91
49461;BME280;35355;49.198;-0.368;2023-01-27T04:09:12;102135.25;;;5.45;84.45
49461;BME280;35355;49.198;-0.368;2023-01-27T04:11:38;102129.84;;;5.45;84.25
49461;BME280;35355;49.198;-0.368;2023-01-27T04:14:22;102119.41;;;5.42;85.60
49461;BME280;35355;49.198;-0.368;2023-01-27T04:16:50;102122.28;;;5.41;84.63
49461;BME280;35355;49.198;-0.368;2023-01-27T04:19:15;102120.59;;;5.40;84.61
49461;BME280;35355;49.198;-0.368;2023-01-27T04:21:40;102130.22;;;5.42;84.54
49461;BME280;35355;49.198;-0.368;2023-01-27T04:24:06;102125.84;;;5.41;84.77
49461;BME280;35355;49.198;-0.368;2023-01-27T04:26:33;102135.84;;;5.41;84.38
49461;BME280;35355;49.198;-0.368;2023-01-27T04:29:03;102131.25;;;5.41;84.63
49461;BME280;35355;49.198;-0.368;2023-01-27T04:31:29;102124.19;;;5.40;83.90
49461;BME280;35355;49.198;-0.368;2023-01-27T04:33:55;102122.28;;;5.41;84.16
49461;BME280;35355;49.198;-0.368;2023-01-27T04:36:21;102113.34;;;5.40;84.09
49461;BME280;35355;49.198;-0.368;2023-01-27T04:38:46;102114.38;;;5.39;84.36
49461;BME280;35355;49.198;-0.368;2023-01-27T04:41:11;102114.38;;;5.39;83.84
49461;BME280;35355;49.198;-0.368;2023-01-27T04:43:37;102110.63;;;5.40;83.97
49461;BME280;35355;49.198;-0.368;2023-01-27T04:46:03;102109.38;;;5.43;84.01
49461;BME280;35355;49.198;-0.368;2023-01-27T04:48:28;102106.88;;;5.41;83.75
49461;BME280;35355;49.198;-0.368;2023-01-27T04:50:53;102113.97;;;5.42;83.94
49461;BME280;35355;49.198;-0.368;2023-01-27T04:53:19;102100.84;;;5.39;83.75
49461;BME280;35355;49.198;-0.368;2023-01-27T04:55:47;102102.50;;;5.40;83.36
49461;BME280;35355;49.198;-0.368;2023-01-27T04:58:13;102102.50;;;5.40;83.57
49461;BME280;35355;49.198;-0.368;2023-01-27T05:00:39;102100.63;;;5.41;83.29
49461;BME280;35355;49.198;-0.368;2023-01-27T05:03:04;102098.56;;;5.43;83.20
49461;BME280;35355;49.198;-0.368;2023-01-27T05:05:31;102104.16;;;5.41;83.96
49461;BME280;35355;49.198;-0.368;2023-01-27T05:08:01;102100.44;;;5.42;83.42
49461;BME280;35355;49.198;-0.368;2023-01-27T05:10:27;102112.97;;;5.43;83.09
49461;BME280;35355;49.198;-0.368;2023-01-27T05:12:52;102096.03;;;5.41;83.26
49461;BME280;35355;49.198;-0.368;2023-01-27T05:15:17;102102.13;;;5.43;83.15
49461;BME280;35355;49.198;-0.368;2023-01-27T05:17:43;102101.94;;;5.45;83.33
49461;BME280;35355;49.198;-0.368;2023-01-27T05:20:08;102101.06;;;5.44;82.74
49461;BME280;35355;49.198;-0.368;2023-01-27T05:22:34;102102.31;;;5.42;83.01
49461;BME280;35355;49.198;-0.368;2023-01-27T05:24:59;102095.66;;;5.44;82.64
49461;BME280;35355;49.198;-0.368;2023-01-27T05:27:24;102092.31;;;5.42;83.09
49461;BME280;35355;49.198;-0.368;2023-01-27T05:29:50;102085.22;;;5.41;83.36
49461;BME280;35355;49.198;-0.368;2023-01-27T05:52:33;102088.66;;;4.55;83.24
49461;BME280;35355;49.198;-0.368;2023-01-27T05:54:58;102087.63;;;4.56;83.87
49461;BME280;35355;49.198;-0.368;2023-01-27T05:57:23;102084.34;;;4.61;84.17
49461;BME280;35355;49.198;-0.368;2023-01-27T05:59:49;102090.03;;;4.66;84.58
49461;BME280;35355;49.198;-0.368;2023-01-27T06:02:14;102085.91;;;4.70;84.53
49461;BME280;35355;49.198;-0.368;2023-01-27T06:04:39;102084.97;;;4.78;84.55
49461;BME280;35355;49.198;-0.368;2023-01-27T06:07:05;102091.50;;;4.84;84.69
49461;BME280;35355;49.198;-0.368;2023-01-27T06:09:30;102091.56;;;4.90;84.87
49461;BME280;35355;49.198;-0.368;2023-01-27T06:11:55;102089.31;;;4.94;84.81
49461;BME280;35355;49.198;-0.368;2023-01-27T06:14:21;102098.53;;;5.00;85.04
49461;BME280;35355;49.198;-0.368;2023-01-27T06:16:47;102092.75;;;5.03;84.93
49461;BME280;35355;49.198;-0.368;2023-01-27T06:19:13;102098.97;;;5.03;84.82
49461;BME280;35355;49.198;-0.368;2023-01-27T06:21:39;102089.03;;;5.04;85.12
49461;BME280;35355;49.198;-0.368;2023-01-27T06:24:04;102091.91;;;5.02;84.62
49461;BME280;35355;49.198;-0.368;2023-01-27T06:26:29;102080.44;;;5.00;84.79
49461;BME280;35355;49.198;-0.368;2023-01-27T06:28:55;102092.09;;;5.01;84.77
49461;BME280;35355;49.198;-0.368;2023-01-27T06:31:21;102089.41;;;5.01;85.32
49461;BME280;35355;49.198;-0.368;2023-01-27T06:33:48;102088.34;;;5.02;85.61
49461;BME280;35355;49.198;-0.368;2023-01-27T06:36:15;102096.13;;;5.05;85.39
49461;BME280;35355;49.198;-0.368;2023-01-27T06:38:41;102101.34;;;5.06;85.18
49461;BME280;35355;49.198;-0.368;2023-01-27T06:41:07;102098.16;;;5.03;85.31
49461;BME280;35355;49.198;-0.368;2023-01-27T06:43:33;102097.53;;;5.01;85.37
49461;BME280;35355;49.198;-0.368;2023-01-27T06:45:59;102098.09;;;4.96;85.73
49461;BME280;35355;49.198;-0.368;2023-01-27T06:48:25;102095.75;;;4.93;85.12
49461;BME280;35355;49.198;-0.368;2023-01-27T06:50:52;102094.09;;;4.92;85.58
49461;BME280;35355;49.198;-0.368;2023-01-27T06:53:17;102103.22;;;4.91;86.36
49461;BME280;35355;49.198;-0.368;2023-01-27T06:55:43;102100.53;;;4.91;86.20
49461;BME280;35355;49.198;-0.368;2023-01-27T06:58:13;102093.91;;;4.94;85.99
49461;BME280;35355;49.198;-0.368;2023-01-27T07:00:39;102099.50;;;4.92;86.24
49461;BME280;35355;49.198;-0.368;2023-01-27T07:03:05;102096.59;;;4.94;86.08
49461;BME280;35355;49.198;-0.368;2023-01-27T07:05:32;102109.56;;;4.98;85.90
49461;BME280;35355;49.198;-0.368;2023-01-27T07:07:58;102104.97;;;4.99;86.80
49461;BME280;35355;49.198;-0.368;2023-01-27T07:10:24;102110.19;;;5.00;86.26
49461;BME280;35355;49.198;-0.368;2023-01-27T07:12:49;102113.56;;;5.02;86.44
49461;BME280;35355;49.198;-0.368;2023-01-27T07:15:14;102102.75;;;5.02;86.55
49461;BME280;35355;49.198;-0.368;2023-01-27T07:17:40;102110.66;;;5.04;86.23
49461;BME280;35355;49.198;-0.368;2023-01-27T07:20:08;102110.66;;;5.04;86.05
49461;BME280;35355;49.198;-0.368;2023-01-27T07:22:35;102116.06;;;5.04;86.38
49461;BME280;35355;49.198;-0.368;2023-01-27T07:25:01;102106.84;;;4.98;86.17
49461;BME280;35355;49.198;-0.368;2023-01-27T07:27:26;102101.81;;;4.95;86.17
49461;BME280;35355;49.198;-0.368;2023-01-27T07:29:52;102102.78;;;4.87;86.61
49461;BME280;35355;49.198;-0.368;2023-01-27T07:32:17;102105.69;;;4.86;86.44
49461;BME280;35355;49.198;-0.368;2023-01-27T07:34:43;102096.69;;;4.85;87.20
49461;BME280;35355;49.198;-0.368;2023-01-27T07:37:08;102095.50;;;4.88;86.85
49461;BME280;35355;49.198;-0.368;2023-01-27T07:39:35;102097.63;;;4.92;87.17
49461;BME280;35355;49.198;-0.368;2023-01-27T07:42:02;102107.88;;;4.97;86.72
49461;BME280;35355;49.198;-0.368;2023-01-27T07:44:27;102095.19;;;4.98;86.58
49461;BME280;35355;49.198;-0.368;2023-01-27T07:46:53;102106.09;;;5.04;86.80
49461;BME280;35355;49.198;-0.368;2023-01-27T07:49:18;102105.69;;;5.07;87.04
49461;BME280;35355;49.198;-0.368;2023-01-27T07:51:44;102109.72;;;5.12;86.95
49461;BME280;35355;49.198;-0.368;2023-01-27T07:54:10;102095.78;;;5.15;87.00
49461;BME280;35355;49.198;-0.368;2023-01-27T07:56:35;102110.81;;;5.17;87.07
49461;BME280;35355;49.198;-0.368;2023-01-27T07:59:01;102107.72;;;5.20;86.61
49461;BME280;35355;49.198;-0.368;2023-01-27T08:01:27;102106.50;;;5.23;87.21
49461;BME280;35355;49.198;-0.368;2023-01-27T08:03:53;102102.75;;;5.24;86.29
49461;BME280;35355;49.198;-0.368;2023-01-27T08:06:19;102103.78;;;5.23;86.75
49461;BME280;35355;49.198;-0.368;2023-01-27T08:08:44;102107.53;;;5.22;87.07
49461;BME280;35355;49.198;-0.368;2023-01-27T08:11:12;102109.22;;;5.23;86.61
49461;BME280;35355;49.198;-0.368;2023-01-27T08:13:38;102110.03;;;5.23;86.40
49461;BME280;35355;49.198;-0.368;2023-01-27T08:16:05;102111.72;;;5.24;87.20
49461;BME280;35355;49.198;-0.368;2023-01-27T08:18:31;102110.22;;;5.22;86.75
49461;BME280;35355;49.198;-0.368;2023-01-27T08:21:02;102120.03;;;5.23;86.82
49461;BME280;35355;49.198;-0.368;2023-01-27T08:23:28;102115.66;;;5.22;86.46
49461;BME280;35355;49.198;-0.368;2023-01-27T08:25:59;102128.75;;;5.18;86.80
49461;BME280;35355;49.198;-0.368;2023-01-27T08:28:25;102139.28;;;5.13;86.78
49461;BME280;35355;49.198;-0.368;2023-01-27T08:30:52;102142.56;;;5.08;87.54
49461;BME280;35355;49.198;-0.368;2023-01-27T08:33:23;102121.50;;;5.04;86.76
49461;BME280;35355;49.198;-0.368;2023-01-27T08:35:49;102128.94;;;5.02;87.04
49461;BME280;35355;49.198;-0.368;2023-01-27T08:38:17;102126.44;;;5.00;86.85
49461;BME280;35355;49.198;-0.368;2023-01-27T08:40:44;102127.28;;;5.01;87.90
49461;BME280;35355;49.198;-0.368;2023-01-27T08:43:12;102134.16;;;5.03;87.19
49461;BME280;35355;49.198;-0.368;2023-01-27T08:45:41;102136.22;;;5.01;87.42
49461;BME280;35355;49.198;-0.368;2023-01-27T08:48:06;102133.16;;;5.04;87.84
49461;BME280;35355;49.198;-0.368;2023-01-27T08:50:32;102141.06;;;5.06;87.38
49461;BME280;35355;49.198;-0.368;2023-01-27T08:52:57;102141.53;;;5.09;86.86
49461;BME280;35355;49.198;-0.368;2023-01-27T08:55:27;102150.09;;;5.13;87.09
49461;BME280;35355;49.198;-0.368;2023-01-27T08:57:53;102139.91;;;5.15;87.04
49461;BME280;35355;49.198;-0.368;2023-01-27T09:00:18;102135.56;;;5.14;87.92
49461;BME280;35355;49.198;-0.368;2023-01-27T09:02:44;102139.19;;;5.21;87.59
49461;BME280;35355;49.198;-0.368;2023-01-27T09:05:09;102141.31;;;5.26;87.77
49461;BME280;35355;49.198;-0.368;2023-01-27T09:07:35;102141.31;;;5.26;87.90
49461;BME280;35355;49.198;-0.368;2023-01-27T09:10:00;102138.59;;;5.26;87.65
49461;BME280;35355;49.198;-0.368;2023-01-27T09:12:26;102151.28;;;5.25;87.82
49461;BME280;35355;49.198;-0.368;2023-01-27T09:14:51;102142.81;;;5.29;87.65
49461;BME280;35355;49.198;-0.368;2023-01-27T09:17:17;102136.13;;;5.31;87.78
49461;BME280;35355;49.198;-0.368;2023-01-27T09:19:45;102142.84;;;5.35;88.07
49461;BME280;35355;49.198;-0.368;2023-01-27T09:22:10;102141.84;;;5.36;88.12
49461;BME280;35355;49.198;-0.368;2023-01-27T09:24:36;102141.84;;;5.36;87.68
49461;BME280;35355;49.198;-0.368;2023-01-27T09:27:01;102133.03;;;5.34;87.90
49461;BME280;35355;49.198;-0.368;2023-01-27T09:29:26;102137.81;;;5.32;87.73
49461;BME280;35355;49.198;-0.368;2023-01-27T09:31:53;102137.00;;;5.32;87.46
49461;BME280;35355;49.198;-0.368;2023-01-27T09:34:18;102125.59;;;5.36;87.92
49461;BME280;35355;49.198;-0.368;2023-01-27T09:36:47;102130.22;;;5.42;88.11
49461;BME280;35355;49.198;-0.368;2023-01-27T09:39:16;102135.88;;;5.48;88.04
49461;BME280;35355;49.198;-0.368;2023-01-27T09:56:07;102141.69;;;5.23;87.12
49461;BME280;35355;49.198;-0.368;2023-01-27T10:01:51;102129.72;;;5.32;88.03
49461;BME280;35355;49.198;-0.368;2023-01-27T10:05:01;102126.03;;;5.40;87.89
49461;BME280;35355;49.198;-0.368;2023-01-27T10:18:02;102134.59;;;5.65;88.23
49461;BME280;35355;49.198;-0.368;2023-01-27T10:23:33;102139.38;;;5.85;88.19
49461;BME280;35355;49.198;-0.368;2023-01-27T10:28:29;102139.50;;;5.98;87.84
49461;BME280;35355;49.198;-0.368;2023-01-27T10:33:53;102134.19;;;6.11;87.94
49461;BME280;35355;49.198;-0.368;2023-01-27T10:42:24;102138.03;;;6.24;88.08
49461;BME280;35355;49.198;-0.368;2023-01-27T10:50:08;102133.69;;;6.29;88.04
49461;BME280;35355;49.198;-0.368;2023-01-27T10:52:41;102125.34;;;6.31;87.57
49461;BME280;35355;49.198;-0.368;2023-01-27T10:55:19;102122.22;;;6.34;87.52
49461;BME280;35355;49.198;-0.368;2023-01-27T10:57:48;102125.19;;;6.39;87.89
49461;BME280;35355;49.198;-0.368;2023-01-27T11:00:33;102114.78;;;6.43;87.72
49461;BME280;35355;49.198;-0.368;2023-01-27T11:03:05;102122.31;;;6.47;87.65
49461;BME280;35355;49.198;-0.368;2023-01-27T11:05:41;102112.47;;;6.46;87.67
49461;BME280;35355;49.198;-0.368;2023-01-27T11:08:19;102122.50;;;6.46;87.38
49461;BME280;35355;49.198;-0.368;2023-01-27T11:10:48;102115.59;;;6.43;87.80
49461;BME280;35355;49.198;-0.368;2023-01-27T11:13:34;102116.88;;;6.41;87.79
49461;BME280;35355;49.198;-0.368;2023-01-27T11:16:01;102116.00;;;6.40;87.58
49461;BME280;35355;49.198;-0.368;2023-01-27T11:18:29;102115.56;;;6.37;87.74
49461;BME280;35355;49.198;-0.368;2023-01-27T11:21:01;102125.19;;;6.39;87.13
49461;BME280;35355;49.198;-0.368;2023-01-27T11:23:35;102128.53;;;6.41;87.75
49461;BME280;35355;49.198;-0.368;2023-01-27T11:28:37;102119.78;;;6.46;87.33
49461;BME280;35355;49.198;-0.368;2023-01-27T11:36:43;102111.06;;;6.50;87.67
49461;BME280;35355;49.198;-0.368;2023-01-27T11:39:09;102118.78;;;6.54;87.05
49461;BME280;35355;49.198;-0.368;2023-01-27T11:41:39;102104.81;;;6.57;86.93
49461;BME280;35355;49.198;-0.368;2023-01-27T11:44:11;102098.97;;;6.60;87.40
49461;BME280;35355;49.198;-0.368;2023-01-27T11:46:40;102098.59;;;6.63;86.97
49461;BME280;35355;49.198;-0.368;2023-01-27T11:49:07;102098.41;;;6.71;86.76
49461;BME280;35355;49.198;-0.368;2023-01-27T11:51:38;102097.59;;;6.77;86.88
49461;BME280;35355;49.198;-0.368;2023-01-27T11:54:17;102084.03;;;6.77;87.28
49461;BME280;35355;49.198;-0.368;2023-01-27T11:56:47;102081.78;;;6.81;86.79
49461;BME280;35355;49.198;-0.368;2023-01-27T11:59:18;102074.03;;;6.78;86.64
49461;BME280;35355;49.198;-0.368;2023-01-27T12:04:23;102079.47;;;6.84;86.33
49461;BME280;35355;49.198;-0.368;2023-01-27T12:07:03;102090.38;;;6.91;86.64
49461;BME280;35355;49.198;-0.368;2023-01-27T12:09:33;102077.84;;;6.97;86.97
49461;BME280;35355;49.198;-0.368;2023-01-27T12:14:53;102086.00;;;7.03;86.76
49461;BME280;35355;49.198;-0.368;2023-01-27T12:17:34;102077.84;;;7.03;86.37
49461;BME280;35355;49.198;-0.368;2023-01-27T12:22:52;102066.59;;;7.00;86.53
49461;BME280;35355;49.198;-0.368;2023-01-27T12:25:24;102061.78;;;6.95;86.73
49461;BME280;35355;49.198;-0.368;2023-01-27T12:27:54;102050.47;;;6.92;86.86
49461;BME280;35355;49.198;-0.368;2023-01-27T12:30:24;102054.00;;;6.92;86.62
49461;BME280;35355;49.198;-0.368;2023-01-27T12:32:51;102051.75;;;6.96;86.12
49461;BME280;35355;49.198;-0.368;2023-01-27T12:37:56;102054.06;;;7.12;86.32
49461;BME280;35355;49.198;-0.368;2023-01-27T12:40:24;102049.06;;;7.16;86.11
49461;BME280;35355;49.198;-0.368;2023-01-27T12:43:11;102043.41;;;7.17;86.02
49461;BME280;35355;49.198;-0.368;2023-01-27T12:45:37;102044.06;;;7.19;86.32
49461;BME280;35355;49.198;-0.368;2023-01-27T12:50:52;102040.69;;;7.17;85.78
49461;BME280;35355;49.198;-0.368;2023-01-27T12:53:25;102032.78;;;7.23;86.15
49461;BME280;35355;49.198;-0.368;2023-01-27T13:04:24;102036.13;;;7.38;85.66
49461;BME280;35355;49.198;-0.368;2023-01-27T13:09:39;102028.63;;;7.40;85.01
49461;BME280;35355;49.198;-0.368;2023-01-27T13:12:25;102030.09;;;7.29;85.00
49461;BME280;35355;49.198;-0.368;2023-01-27T13:14:57;102026.50;;;7.29;84.77
49461;BME280;35355;49.198;-0.368;2023-01-27T13:17:52;102027.75;;;7.26;84.67
49461;BME280;35355;49.198;-0.368;2023-01-27T13:20:23;102032.38;;;7.26;84.58
49461;BME280;35355;49.198;-0.368;2023-01-27T13:22:55;102029.25;;;7.22;84.17
49461;BME280;35355;49.198;-0.368;2023-01-27T13:25:27;102018.34;;;7.15;84.54
49461;BME280;35355;49.198;-0.368;2023-01-27T13:27:57;102031.53;;;7.12;83.85
49461;BME280;35355;49.198;-0.368;2023-01-27T13:30:31;102022.31;;;7.06;83.84
49461;BME280;35355;49.198;-0.368;2023-01-27T13:35:46;102017.94;;;6.98;83.94
49461;BME280;35355;49.198;-0.368;2023-01-27T13:38:35;102026.47;;;7.02;83.79
49461;BME280;35355;49.198;-0.368;2023-01-27T13:41:14;102006.03;;;7.06;83.47
49461;BME280;35355;49.198;-0.368;2023-01-27T13:43:50;102020.00;;;7.10;83.31
49461;BME280;35355;49.198;-0.368;2023-01-27T13:46:24;102022.72;;;7.10;83.57
49461;BME280;35355;49.198;-0.368;2023-01-27T13:48:53;102007.91;;;7.12;82.89
49461;BME280;35355;49.198;-0.368;2023-01-27T13:51:22;102025.25;;;7.11;82.46
49461;BME280;35355;49.198;-0.368;2023-01-27T13:53:56;102019.41;;;7.08;82.17
49461;BME280;35355;49.198;-0.368;2023-01-27T14:21:46;102041.19;;;6.53;82.83
49461;BME280;35355;49.198;-0.368;2023-01-27T14:27:21;102057.66;;;6.51;82.92
49461;BME280;35355;49.198;-0.368;2023-01-27T14:43:08;102061.41;;;6.57;82.86
49461;BME280;35355;49.198;-0.368;2023-01-27T14:45:38;102061.41;;;6.57;82.38
49461;BME280;35355;49.198;-0.368;2023-01-27T15:01:36;102096.25;;;6.53;81.01
49461;BME280;35355;49.198;-0.368;2023-01-27T15:25:49;102123.38;;;6.18;80.47
49461;BME280;35355;49.198;-0.368;2023-01-27T15:28:18;102136.03;;;6.11;80.29
49461;BME280;35355;49.198;-0.368;2023-01-27T15:38:59;102142.84;;;6.00;80.82
49461;BME280;35355;49.198;-0.368;2023-01-27T15:41:25;102142.03;;;6.00;80.17
49461;BME280;35355;49.198;-0.368;2023-01-27T15:44:07;102141.16;;;5.99;80.16
49461;BME280;35355;49.198;-0.368;2023-01-27T15:46:48;102131.75;;;5.95;80.13
49461;BME280;35355;49.198;-0.368;2023-01-27T15:51:48;102148.00;;;5.95;79.77
49461;BME280;35355;49.198;-0.368;2023-01-27T15:54:23;102146.72;;;5.91;80.18
49461;BME280;35355;49.198;-0.368;2023-01-27T15:56:52;102146.06;;;5.89;80.08
49461;BME280;35355;49.198;-0.368;2023-01-27T15:59:27;102150.22;;;5.85;79.87
49461;BME280;35355;49.198;-0.368;2023-01-27T16:02:17;102156.84;;;5.82;79.91
49461;BME280;35355;49.198;-0.368;2023-01-27T16:04:43;102155.38;;;5.79;79.75
49461;BME280;35355;49.198;-0.368;2023-01-27T16:07:30;102152.22;;;5.76;79.75
49461;BME280;35355;49.198;-0.368;2023-01-27T16:09:57;102160.91;;;5.71;79.20
49461;BME280;35355;49.198;-0.368;2023-01-27T16:17:25;102169.19;;;5.63;79.26
49461;BME280;35355;49.198;-0.368;2023-01-27T16:20:10;102176.28;;;5.64;78.94